Time;durP1;ratioP1;P1;durP2;ratioP2;P2;SDS_P1;SDS_P2;PMS_P1;PMS_P2;Temp;Humidity;BMP_temperature;BMP_pressure;BME280_temperature;BME280_humidity;BME280_pressure;Samples;Min_cycle;Max_cycle;Signal;HPM_P1;HPM_P2
2023/12/10 00:01:14;;;;;;;;;;;19.10;59.70;;;;;;5046543;28;1359;-68
2023/12/10 00:03:39;;;;;;;;;;;19.10;59.70;;;;;;5038428;28;1499;-68
2023/12/10 00:06:05;;;;;;;;;;;19.10;59.70;;;;;;5038648;28;1653;-69
2023/12/10 00:08:31;;;;;;;;;;;19.10;59.70;;;;;;5035533;28;1263;-69
2023/12/10 00:10:56;;;;;;;;;;;19.10;59.80;;;;;;5038296;28;1981;-68
2023/12/10 00:13:22;;;;;;;;;;;19.10;59.70;;;;;;5040128;28;1648;-68
2023/12/10 00:15:47;;;;;;;;;;;19.10;59.80;;;;;;5037805;28;1287;-68
2023/12/10 00:18:13;;;;;;;;;;;19.10;59.80;;;;;;5039094;28;1292;-68
2023/12/10 00:20:38;;;;;;;;;;;19.10;59.80;;;;;;5041506;28;1439;-69
2023/12/10 00:23:04;;;;;;;;;;;19.10;59.80;;;;;;5039628;28;1332;-69
2023/12/10 00:25:31;;;;;;;;;;;19.10;59.80;;;;;;5039091;28;1609;-68
2023/12/10 00:27:57;;;;;;;;;;;19.10;59.80;;;;;;5039246;28;1375;-68
2023/12/10 00:30:23;;;;;;;;;;;19.10;59.80;;;;;;5037601;28;1973;-68
2023/12/10 00:32:48;;;;;;;;;;;19.10;59.80;;;;;;5037355;28;1343;-68
2023/12/10 00:35:14;;;;;;;;;;;19.10;59.80;;;;;;5036784;28;1352;-68
2023/12/10 00:37:39;;;;;;;;;;;19.10;59.80;;;;;;5034629;28;1474;-68
2023/12/10 00:40:06;;;;;;;;;;;19.00;59.70;;;;;;5035388;28;1346;-68
2023/12/10 00:42:32;;;;;;;;;;;19.10;59.80;;;;;;5035775;28;1427;-68
2023/12/10 00:44:57;;;;;;;;;;;19.10;59.80;;;;;;5036414;28;1202;-68
2023/12/10 00:47:23;;;;;;;;;;;19.10;59.80;;;;;;5038852;28;1377;-68
2023/12/10 00:49:48;;;;;;;;;;;19.10;59.80;;;;;;5038460;28;1965;-68
2023/12/10 00:52:14;;;;;;;;;;;19.00;59.80;;;;;;5039648;28;1410;-69
2023/12/10 00:54:39;;;;;;;;;;;19.10;59.80;;;;;;5038427;28;1468;-68
2023/12/10 00:57:05;;;;;;;;;;;19.10;59.80;;;;;;5035402;28;1437;-68
2023/12/10 00:59:30;;;;;;;;;;;19.00;59.80;;;;;;5038004;28;1308;-68
2023/12/10 01:01:57;;;;;;;;;;;19.00;59.80;;;;;;5036652;28;1500;-68
2023/12/10 01:04:22;;;;;;;;;;;19.10;59.90;;;;;;5053089;28;1522;-68
2023/12/10 01:06:48;;;;;;;;;;;19.00;59.80;;;;;;5036902;28;1501;-68
2023/12/10 01:09:17;;;;;;;;;;;19.10;59.90;;;;;;5036834;28;1524;-68
2023/12/10 01:11:42;;;;;;;;;;;19.10;59.90;;;;;;5039184;28;1902;-68
2023/12/10 01:14:08;;;;;;;;;;;19.00;59.80;;;;;;5040538;28;1317;-68
2023/12/10 01:16:33;;;;;;;;;;;19.00;59.80;;;;;;5032397;28;1507;-68
2023/12/10 01:18:59;;;;;;;;;;;19.00;59.80;;;;;;5038801;28;1332;-68
2023/12/10 01:21:24;;;;;;;;;;;19.00;59.80;;;;;;5036957;28;1365;-69
2023/12/10 01:23:54;;;;;;;;;;;19.00;59.80;;;;;;5038490;28;1717;-68
2023/12/10 01:26:19;;;;;;;;;;;19.10;59.90;;;;;;5035028;28;1246;-68
2023/12/10 01:28:45;;;;;;;;;;;19.00;59.80;;;;;;5033936;28;1739;-69
2023/12/10 01:31:10;;;;;;;;;;;19.00;59.90;;;;;;5034220;28;1953;-68
2023/12/10 01:33:36;;;;;;;;;;;19.00;59.80;;;;;;5037181;28;1155;-68
2023/12/10 01:36:01;;;;;;;;;;;19.00;59.80;;;;;;5035779;28;1022;-68
2023/12/10 01:38:27;;;;;;;;;;;19.00;59.80;;;;;;5067808;28;1832;-68
2023/12/10 01:40:52;;;;;;;;;;;19.00;59.90;;;;;;5036307;28;1408;-69
2023/12/10 01:43:18;;;;;;;;;;;19.00;59.90;;;;;;5037498;28;1529;-68
2023/12/10 01:45:53;;;;;;;;;;;19.00;59.80;;;;;;5034885;28;1353;-68
2023/12/10 01:48:21;;;;;;;;;;;19.10;59.90;;;;;;5031579;28;1314;-68
2023/12/10 01:50:47;;;;;;;;;;;19.00;59.90;;;;;;5038023;28;1898;-68
2023/12/10 01:53:12;;;;;;;;;;;19.00;59.90;;;;;;5037861;28;1301;-68
2023/12/10 01:55:38;;;;;;;;;;;19.00;59.80;;;;;;5035091;28;1643;-68
2023/12/10 01:58:04;;;;;;;;;;;19.00;59.80;;;;;;5034223;28;1329;-68
2023/12/10 02:00:29;;;;;;;;;;;19.00;59.90;;;;;;5033627;28;1315;-68
2023/12/10 02:02:55;;;;;;;;;;;19.00;59.80;;;;;;5036470;28;1381;-68
2023/12/10 02:05:21;;;;;;;;;;;19.00;59.90;;;;;;5039400;28;1334;-68
2023/12/10 02:07:46;;;;;;;;;;;19.00;59.90;;;;;;5037929;28;1467;-68
2023/12/10 02:10:12;;;;;;;;;;;19.00;59.90;;;;;;5045025;28;1914;-68
2023/12/10 02:12:38;;;;;;;;;;;19.00;59.90;;;;;;5035504;28;1357;-68
2023/12/10 02:15:13;;;;;;;;;;;19.00;59.90;;;;;;5043863;28;1265;-68
2023/12/10 02:17:39;;;;;;;;;;;19.00;60.00;;;;;;5034445;28;1346;-68
2023/12/10 02:20:05;;;;;;;;;;;19.00;59.90;;;;;;5035616;28;1264;-68
2023/12/10 02:22:31;;;;;;;;;;;19.00;60.00;;;;;;5037444;28;1543;-68
2023/12/10 02:24:57;;;;;;;;;;;19.00;60.00;;;;;;5036870;28;1281;-68
2023/12/10 02:27:22;;;;;;;;;;;19.00;59.90;;;;;;5019869;28;1319;-68
2023/12/10 02:29:50;;;;;;;;;;;19.00;59.90;;;;;;5036709;28;1898;-68
2023/12/10 02:32:16;;;;;;;;;;;19.00;60.00;;;;;;5035822;28;1282;-68
2023/12/10 02:34:42;;;;;;;;;;;19.00;59.90;;;;;;5033672;28;1378;-68
2023/12/10 02:37:07;;;;;;;;;;;19.00;60.00;;;;;;5066671;28;1344;-68
2023/12/10 02:39:33;;;;;;;;;;;19.00;60.00;;;;;;5035647;28;1322;-68
2023/12/10 02:41:58;;;;;;;;;;;19.00;60.00;;;;;;5038372;28;1439;-68
2023/12/10 02:44:24;;;;;;;;;;;19.00;60.00;;;;;;5040312;28;1265;-68
2023/12/10 02:46:49;;;;;;;;;;;19.00;60.00;;;;;;5037168;28;1128;-68
2023/12/10 02:49:15;;;;;;;;;;;19.00;60.00;;;;;;5041464;28;1390;-68
2023/12/10 02:51:40;;;;;;;;;;;19.00;60.00;;;;;;5042392;28;2001;-69
2023/12/10 02:54:06;;;;;;;;;;;19.00;60.00;;;;;;5039051;28;1573;-68
2023/12/10 02:56:31;;;;;;;;;;;19.00;60.00;;;;;;5039950;28;1650;-68
2023/12/10 02:58:57;;;;;;;;;;;19.00;60.00;;;;;;5039645;28;1457;-68
2023/12/10 03:01:22;;;;;;;;;;;19.00;60.00;;;;;;5039030;28;1440;-68
2023/12/10 03:03:48;;;;;;;;;;;18.90;59.90;;;;;;5038860;28;1460;-68
2023/12/10 03:06:13;;;;;;;;;;;19.00;60.00;;;;;;5041612;28;1298;-68
2023/12/10 03:08:39;;;;;;;;;;;19.00;60.00;;;;;;5038505;28;1352;-68
2023/12/10 03:11:04;;;;;;;;;;;19.00;60.00;;;;;;5070437;28;1910;-68
2023/12/10 03:13:30;;;;;;;;;;;19.00;60.00;;;;;;5040481;28;1278;-68
2023/12/10 03:15:55;;;;;;;;;;;18.90;59.90;;;;;;5041105;28;1359;-68
2023/12/10 03:18:21;;;;;;;;;;;19.00;60.00;;;;;;5039036;28;1355;-68
2023/12/10 03:20:46;;;;;;;;;;;19.00;60.00;;;;;;5040450;28;1434;-68
2023/12/10 03:23:12;;;;;;;;;;;19.00;60.00;;;;;;5038599;28;1330;-68
2023/12/10 03:25:37;;;;;;;;;;;19.00;60.00;;;;;;5036785;28;1419;-69
2023/12/10 03:28:03;;;;;;;;;;;19.00;60.00;;;;;;5039666;28;1523;-69
2023/12/10 03:30:28;;;;;;;;;;;19.00;60.00;;;;;;5036550;28;1962;-68
2023/12/10 03:32:54;;;;;;;;;;;19.00;60.00;;;;;;5037432;28;1178;-68
2023/12/10 03:35:19;;;;;;;;;;;19.00;60.00;;;;;;5038310;28;1368;-68
2023/12/10 03:37:45;;;;;;;;;;;19.00;60.00;;;;;;5040062;28;1398;-68
2023/12/10 03:40:11;;;;;;;;;;;18.90;60.00;;;;;;5041308;28;1458;-69
2023/12/10 03:42:36;;;;;;;;;;;18.90;60.00;;;;;;5041713;28;1624;-68
2023/12/10 03:45:02;;;;;;;;;;;19.00;60.00;;;;;;5039359;28;1355;-69
2023/12/10 03:47:27;;;;;;;;;;;18.90;60.00;;;;;;5044607;28;1370;-69
2023/12/10 03:49:52;;;;;;;;;;;19.00;60.00;;;;;;5039324;28;1905;-68
2023/12/10 03:52:18;;;;;;;;;;;18.90;60.00;;;;;;5039809;28;1345;-69
2023/12/10 03:54:43;;;;;;;;;;;19.00;60.10;;;;;;5040664;28;1391;-69
2023/12/10 03:57:09;;;;;;;;;;;18.90;60.00;;;;;;5041331;28;1383;-69
2023/12/10 03:59:34;;;;;;;;;;;19.00;60.50;;;;;;5036432;28;1409;-69
2023/12/10 04:02:00;;;;;;;;;;;18.90;60.00;;;;;;5039607;28;1322;-69
2023/12/10 04:04:25;;;;;;;;;;;19.00;60.10;;;;;;5039386;28;1129;-69
2023/12/10 04:06:51;;;;;;;;;;;18.90;60.10;;;;;;5040157;28;1490;-68
2023/12/10 04:09:16;;;;;;;;;;;18.90;60.10;;;;;;5033500;28;1701;-68
2023/12/10 04:11:42;;;;;;;;;;;18.90;60.10;;;;;;5041035;28;1984;-69
2023/12/10 04:14:09;;;;;;;;;;;18.90;60.10;;;;;;5040179;28;1376;-68
2023/12/10 04:16:34;;;;;;;;;;;18.90;60.10;;;;;;5037759;28;1303;-68
2023/12/10 04:18:59;;;;;;;;;;;18.90;60.10;;;;;;5036012;28;1469;-68
2023/12/10 04:21:25;;;;;;;;;;;18.90;60.10;;;;;;5038327;28;1246;-68
2023/12/10 04:23:51;;;;;;;;;;;18.90;60.10;;;;;;5035184;28;1458;-68
2023/12/10 04:26:16;;;;;;;;;;;18.90;60.20;;;;;;5067585;28;1373;-69
2023/12/10 04:28:42;;;;;;;;;;;18.90;60.10;;;;;;5036934;28;1343;-69
2023/12/10 04:31:08;;;;;;;;;;;18.90;60.10;;;;;;5039059;28;1918;-69
2023/12/10 04:33:33;;;;;;;;;;;18.90;60.10;;;;;;5038071;28;1378;-69
2023/12/10 04:35:59;;;;;;;;;;;18.90;60.10;;;;;;5045435;28;1450;-69
2023/12/10 04:38:25;;;;;;;;;;;18.90;60.10;;;;;;5038824;28;1380;-68
2023/12/10 04:40:50;;;;;;;;;;;18.90;60.10;;;;;;5038233;28;1624;-69
2023/12/10 04:43:16;;;;;;;;;;;18.90;60.10;;;;;;5036112;28;1532;-68
2023/12/10 04:45:41;;;;;;;;;;;18.90;60.10;;;;;;5038076;28;1389;-68
2023/12/10 04:48:07;;;;;;;;;;;18.90;60.10;;;;;;5038492;28;1327;-68
2023/12/10 04:50:32;;;;;;;;;;;18.90;60.10;;;;;;5036349;28;1907;-69
2023/12/10 04:52:58;;;;;;;;;;;18.90;60.20;;;;;;5038545;28;1583;-68
2023/12/10 04:55:23;;;;;;;;;;;18.90;60.20;;;;;;5036739;28;1463;-68
2023/12/10 04:57:49;;;;;;;;;;;18.90;60.20;;;;;;5036336;28;1438;-68
2023/12/10 05:00:15;;;;;;;;;;;18.90;60.20;;;;;;5035912;28;1304;-68
2023/12/10 05:02:41;;;;;;;;;;;18.90;60.20;;;;;;5035578;28;1560;-68
2023/12/10 05:05:08;;;;;;;;;;;18.90;60.20;;;;;;5036768;28;2025;-68
2023/12/10 05:07:34;;;;;;;;;;;18.90;60.20;;;;;;5039983;28;1688;-69
2023/12/10 05:09:59;;;;;;;;;;;18.90;60.20;;;;;;5034182;28;1914;-69
2023/12/10 05:12:25;;;;;;;;;;;18.90;60.30;;;;;;5037570;28;1473;-68
2023/12/10 05:14:50;;;;;;;;;;;18.90;60.30;;;;;;5039080;28;1442;-68
2023/12/10 05:17:16;;;;;;;;;;;18.90;60.30;;;;;;5034661;28;1465;-68
2023/12/10 05:19:41;;;;;;;;;;;18.90;60.30;;;;;;5038893;28;1284;-68
2023/12/10 05:22:07;;;;;;;;;;;18.90;60.30;;;;;;5038195;28;1524;-68
2023/12/10 05:24:32;;;;;;;;;;;18.90;61.10;;;;;;5039998;28;1291;-68
2023/12/10 05:26:58;;;;;;;;;;;18.90;60.30;;;;;;5036285;28;1498;-68
2023/12/10 05:29:23;;;;;;;;;;;19.00;60.30;;;;;;5036188;28;1571;-68
2023/12/10 05:31:49;;;;;;;;;;;19.10;60.30;;;;;;5036958;28;1910;-68
2023/12/10 05:34:14;;;;;;;;;;;19.10;60.10;;;;;;5035520;28;1401;-69
2023/12/10 05:36:40;;;;;;;;;;;19.30;60.10;;;;;;5038099;28;1336;-68
2023/12/10 05:39:05;;;;;;;;;;;19.40;59.90;;;;;;5032487;28;1455;-68
2023/12/10 05:41:31;;;;;;;;;;;19.50;59.60;;;;;;5037277;28;1440;-68
2023/12/10 05:43:56;;;;;;;;;;;19.60;59.30;;;;;;5038863;28;1414;-68
2023/12/10 05:46:22;;;;;;;;;;;19.70;59.10;;;;;;5037203;28;1218;-68
2023/12/10 05:48:47;;;;;;;;;;;19.90;58.80;;;;;;5036744;28;1360;-68
2023/12/10 05:51:13;;;;;;;;;;;20.00;58.60;;;;;;5034785;28;1914;-68
2023/12/10 05:53:38;;;;;;;;;;;20.20;58.40;;;;;;5044992;28;1596;-68
2023/12/10 05:56:04;;;;;;;;;;;20.30;58.10;;;;;;5039078;28;1471;-68
2023/12/10 05:58:30;;;;;;;;;;;20.40;57.90;;;;;;5035132;28;1451;-68
2023/12/10 06:00:56;;;;;;;;;;;20.50;57.70;;;;;;5037903;28;1255;-68
2023/12/10 06:03:24;;;;;;;;;;;20.60;57.50;;;;;;5037029;28;1493;-68
2023/12/10 06:05:50;;;;;;;;;;;20.60;57.20;;;;;;5036400;28;1316;-68
2023/12/10 06:08:15;;;;;;;;;;;20.70;57.00;;;;;;5037960;28;1480;-67
2023/12/10 06:10:41;;;;;;;;;;;20.80;56.80;;;;;;5036170;28;1977;-67
2023/12/10 06:13:06;;;;;;;;;;;20.80;56.70;;;;;;5036446;28;2282;-67
2023/12/10 06:15:32;;;;;;;;;;;20.90;56.50;;;;;;5032488;28;1980;-69
2023/12/10 06:17:57;;;;;;;;;;;20.90;56.40;;;;;;5060396;28;4448;-68
2023/12/10 06:20:23;;;;;;;;;;;21.00;56.40;;;;;;5034828;28;4245;-67
2023/12/10 06:22:49;;;;;;;;;;;21.00;56.30;;;;;;5038919;28;1356;-70
2023/12/10 06:25:14;;;;;;;;;;;21.00;56.30;;;;;;5038265;28;1387;-68
2023/12/10 06:27:40;;;;;;;;;;;21.00;56.30;;;;;;5038164;28;1449;-69
2023/12/10 06:30:08;;;;;;;;;;;21.00;56.30;;;;;;5053545;28;1985;-69
2023/12/10 06:32:34;;;;;;;;;;;21.00;56.30;;;;;;5040377;28;1360;-70
2023/12/10 06:34:59;;;;;;;;;;;21.00;56.20;;;;;;5028279;28;1432;-70
2023/12/10 06:37:25;;;;;;;;;;;21.00;56.80;;;;;;5041360;28;1420;-70
2023/12/10 06:39:51;;;;;;;;;;;21.00;56.30;;;;;;5054817;28;1305;-72
2023/12/10 06:42:16;;;;;;;;;;;21.00;56.40;;;;;;5041148;28;1088;-71
2023/12/10 06:44:42;;;;;;;;;;;21.00;56.30;;;;;;5041387;28;1322;-72
2023/12/10 06:47:07;;;;;;;;;;;20.90;56.30;;;;;;5038777;28;1416;-70
2023/12/10 06:49:33;;;;;;;;;;;20.90;56.40;;;;;;5039815;28;1276;-69
2023/12/10 06:51:58;;;;;;;;;;;20.90;56.40;;;;;;5041576;28;1961;-70
2023/12/10 06:54:24;;;;;;;;;;;20.90;56.40;;;;;;5040705;28;1257;-69
2023/12/10 06:56:49;;;;;;;;;;;20.90;56.50;;;;;;5042334;28;1386;-70
2023/12/10 06:59:15;;;;;;;;;;;20.90;56.50;;;;;;5039079;28;1314;-70
2023/12/10 07:01:41;;;;;;;;;;;20.80;56.50;;;;;;5040408;28;1370;-69
2023/12/10 07:04:09;;;;;;;;;;;20.80;56.60;;;;;;5046848;28;1388;-72
2023/12/10 07:06:35;;;;;;;;;;;20.80;56.70;;;;;;5040227;28;1345;-72
2023/12/10 07:09:00;;;;;;;;;;;20.80;56.70;;;;;;5055496;28;1297;-71
2023/12/10 07:11:26;;;;;;;;;;;20.70;56.70;;;;;;5037052;28;1906;-71
2023/12/10 07:13:53;;;;;;;;;;;20.70;56.80;;;;;;5070164;28;1371;-71
2023/12/10 07:16:19;;;;;;;;;;;20.70;56.80;;;;;;5039403;28;1285;-71
2023/12/10 07:18:44;;;;;;;;;;;20.70;56.90;;;;;;5031884;28;1601;-70
2023/12/10 07:21:10;;;;;;;;;;;20.60;56.90;;;;;;5036996;28;887;-69
2023/12/10 07:23:36;;;;;;;;;;;20.60;57.00;;;;;;5039214;28;1140;-68
2023/12/10 07:26:02;;;;;;;;;;;20.60;57.00;;;;;;5039540;28;1680;-69
2023/12/10 07:28:27;;;;;;;;;;;20.60;57.10;;;;;;5036611;28;1362;-70
2023/12/10 07:30:53;;;;;;;;;;;20.60;57.20;;;;;;5040570;28;1902;-69
2023/12/10 07:33:18;;;;;;;;;;;20.50;57.20;;;;;;5039767;28;1453;-70
2023/12/10 07:35:44;;;;;;;;;;;20.50;57.30;;;;;;5040255;28;1282;-70
2023/12/10 07:38:10;;;;;;;;;;;20.50;57.40;;;;;;5034097;28;1792;-70
2023/12/10 07:40:35;;;;;;;;;;;20.50;57.50;;;;;;5033509;28;1247;-69
2023/12/10 07:43:01;;;;;;;;;;;20.40;57.40;;;;;;5071872;28;1329;-70
2023/12/10 07:45:26;;;;;;;;;;;20.40;57.50;;;;;;5046256;28;1372;-70
2023/12/10 07:47:52;;;;;;;;;;;20.40;57.60;;;;;;5037014;28;1506;-70
2023/12/10 07:50:17;;;;;;;;;;;20.40;57.60;;;;;;5035432;28;1971;-70
2023/12/10 07:52:43;;;;;;;;;;;20.40;57.70;;;;;;5039524;28;1241;-71
2023/12/10 07:55:08;;;;;;;;;;;20.30;57.70;;;;;;5036429;28;1523;-71
2023/12/10 07:57:34;;;;;;;;;;;20.30;57.70;;;;;;5040781;28;1728;-70
2023/12/10 07:59:59;;;;;;;;;;;20.30;57.80;;;;;;5039776;28;1337;-70
2023/12/10 08:02:25;;;;;;;;;;;20.30;57.90;;;;;;5050248;28;2268;-71
2023/12/10 08:04:51;;;;;;;;;;;20.20;57.90;;;;;;5035037;28;1351;-69
2023/12/10 08:07:16;;;;;;;;;;;20.20;57.90;;;;;;5038743;28;1275;-68
2023/12/10 08:09:42;;;;;;;;;;;20.20;58.00;;;;;;5039248;28;1386;-69
2023/12/10 08:12:07;;;;;;;;;;;20.20;58.10;;;;;;5070510;28;890;-69
2023/12/10 08:14:33;;;;;;;;;;;20.10;58.10;;;;;;5039284;28;1280;-68
2023/12/10 08:16:59;;;;;;;;;;;20.10;58.10;;;;;;5040787;28;931;-68
2023/12/10 08:19:25;;;;;;;;;;;20.10;58.10;;;;;;5039380;28;1351;-68
2023/12/10 08:21:51;;;;;;;;;;;20.10;58.20;;;;;;5039904;28;958;-68
2023/12/10 08:24:17;;;;;;;;;;;20.10;58.20;;;;;;5038024;28;1228;-70
2023/12/10 08:26:42;;;;;;;;;;;20.10;58.30;;;;;;5040170;28;1590;-69
2023/12/10 08:29:08;;;;;;;;;;;20.10;58.30;;;;;;5036834;28;1410;-69
2023/12/10 08:31:33;;;;;;;;;;;20.10;58.30;;;;;;5039886;28;1890;-69
2023/12/10 08:33:59;;;;;;;;;;;20.00;58.20;;;;;;5037910;28;1325;-68
2023/12/10 08:36:24;;;;;;;;;;;20.10;58.40;;;;;;5038253;28;1334;-68
2023/12/10 08:38:50;;;;;;;;;;;20.00;58.30;;;;;;5036515;28;1516;-69
2023/12/10 08:41:15;;;;;;;;;;;20.00;58.30;;;;;;5038182;28;1306;-69
2023/12/10 08:43:41;;;;;;;;;;;20.00;58.30;;;;;;5038409;28;1192;-68
2023/12/10 08:46:07;;;;;;;;;;;20.00;58.40;;;;;;5039711;28;1439;-68
2023/12/10 08:48:33;;;;;;;;;;;20.00;58.40;;;;;;5036848;28;1541;-69
2023/12/10 08:50:58;;;;;;;;;;;20.00;58.40;;;;;;5039860;28;1902;-69
2023/12/10 08:53:24;;;;;;;;;;;19.90;58.40;;;;;;5039010;28;1314;-69
2023/12/10 08:55:49;;;;;;;;;;;19.90;58.40;;;;;;5038115;28;1481;-69
2023/12/10 08:58:15;;;;;;;;;;;20.00;58.50;;;;;;5037366;28;1455;-68
2023/12/10 09:00:41;;;;;;;;;;;20.00;58.50;;;;;;5037079;28;1344;-69
2023/12/10 09:03:06;;;;;;;;;;;19.90;58.50;;;;;;5035775;28;1655;-69
2023/12/10 09:05:32;;;;;;;;;;;19.90;58.50;;;;;;5036494;28;1352;-69
2023/12/10 09:07:57;;;;;;;;;;;19.90;58.50;;;;;;5036337;28;1572;-69
2023/12/10 09:10:23;;;;;;;;;;;19.90;58.50;;;;;;5035731;28;1977;-69
2023/12/10 09:12:48;;;;;;;;;;;19.90;58.50;;;;;;5038598;28;1267;-68
2023/12/10 09:15:14;;;;;;;;;;;19.90;58.50;;;;;;5037438;28;1541;-68
2023/12/10 09:17:39;;;;;;;;;;;19.90;58.50;;;;;;5035290;28;1480;-68
2023/12/10 09:20:06;;;;;;;;;;;19.90;58.50;;;;;;5035439;28;1482;-69
2023/12/10 09:22:31;;;;;;;;;;;19.90;58.50;;;;;;5034833;28;1536;-68
2023/12/10 09:24:57;;;;;;;;;;;19.90;58.50;;;;;;5041835;28;1261;-69
2023/12/10 09:27:22;;;;;;;;;;;19.90;58.50;;;;;;5037249;28;1416;-70
2023/12/10 09:29:48;;;;;;;;;;;19.90;58.50;;;;;;5035766;28;1964;-69
2023/12/10 09:32:16;;;;;;;;;;;19.90;58.50;;;;;;5038703;28;1505;-68
2023/12/10 09:34:41;;;;;;;;;;;19.90;58.50;;;;;;5039346;28;1386;-69
2023/12/10 09:37:10;;;;;;;;;;;19.90;58.50;;;;;;5038875;28;875;-69
2023/12/10 09:39:36;;;;;;;;;;;19.90;58.50;;;;;;5034749;28;1214;-69
2023/12/10 09:42:02;;;;;;;;;;;19.90;58.50;;;;;;5037580;28;1184;-69
2023/12/10 09:44:28;;;;;;;;;;;19.90;58.50;;;;;;5038455;28;1401;-69
2023/12/10 09:46:53;;;;;;;;;;;19.90;58.50;;;;;;5037715;28;1449;-70
2023/12/10 09:49:19;;;;;;;;;;;19.90;58.50;;;;;;5035493;28;1581;-68
2023/12/10 09:51:44;;;;;;;;;;;19.90;58.50;;;;;;5035151;28;1894;-68
2023/12/10 09:54:10;;;;;;;;;;;19.90;58.50;;;;;;5041725;28;1254;-69
2023/12/10 09:56:35;;;;;;;;;;;19.90;58.60;;;;;;5040849;28;1428;-69
2023/12/10 09:59:01;;;;;;;;;;;19.80;58.50;;;;;;5039418;28;1342;-69
2023/12/10 10:01:26;;;;;;;;;;;19.90;58.60;;;;;;5042182;28;1298;-73
2023/12/10 10:03:52;;;;;;;;;;;19.90;58.60;;;;;;5040814;28;1454;-71
2023/12/10 10:06:17;;;;;;;;;;;19.90;58.60;;;;;;5038124;28;1370;-71
2023/12/10 10:08:42;;;;;;;;;;;19.80;58.60;;;;;;5039873;28;1409;-70
2023/12/10 10:11:08;;;;;;;;;;;19.80;58.60;;;;;;5043279;28;2022;-69
2023/12/10 10:13:34;;;;;;;;;;;19.80;58.60;;;;;;5044586;28;1417;-69
2023/12/10 10:16:10;;;;;;;;;;;19.80;58.60;;;;;;5041617;28;1411;-71
2023/12/10 10:18:39;;;;;;;;;;;19.80;58.60;;;;;;5040301;28;1285;-69
2023/12/10 10:21:05;;;;;;;;;;;19.80;58.60;;;;;;5039275;28;1422;-70
2023/12/10 10:23:31;;;;;;;;;;;19.80;58.70;;;;;;5042609;28;1474;-68
2023/12/10 10:25:56;;;;;;;;;;;19.80;58.70;;;;;;5042288;28;1198;-69
2023/12/10 10:28:22;;;;;;;;;;;19.80;58.70;;;;;;5039198;28;1455;-69
2023/12/10 10:30:47;;;;;;;;;;;19.80;58.70;;;;;;5039517;28;1967;-69
2023/12/10 10:33:13;;;;;;;;;;;19.80;58.70;;;;;;5039647;28;1181;-70
2023/12/10 10:35:38;;;;;;;;;;;19.70;58.70;;;;;;5038543;28;1615;-71
2023/12/10 10:38:04;;;;;;;;;;;19.80;58.80;;;;;;5039265;28;1320;-70
2023/12/10 10:40:30;;;;;;;;;;;19.70;58.70;;;;;;5042923;28;1147;-70
2023/12/10 10:42:55;;;;;;;;;;;19.70;58.70;;;;;;5039801;28;1018;-70
2023/12/10 10:45:21;;;;;;;;;;;19.70;58.80;;;;;;5039253;28;1747;-71
2023/12/10 10:47:46;;;;;;;;;;;19.70;58.80;;;;;;5037108;28;1383;-71
2023/12/10 10:50:12;;;;;;;;;;;19.70;58.80;;;;;;5046578;28;1969;-69
2023/12/10 10:52:37;;;;;;;;;;;19.70;58.80;;;;;;5036189;28;1376;-71
2023/12/10 10:55:03;;;;;;;;;;;19.70;58.80;;;;;;5047875;28;1444;-72
2023/12/10 10:57:29;;;;;;;;;;;19.70;58.90;;;;;;5039890;28;1365;-71
2023/12/10 10:59:55;;;;;;;;;;;19.70;58.90;;;;;;5034924;28;1370;-71
2023/12/10 11:02:21;;;;;;;;;;;19.70;58.90;;;;;;5038362;28;1443;-71
2023/12/10 11:04:49;;;;;;;;;;;19.70;58.90;;;;;;5041463;28;1300;-71
2023/12/10 11:07:14;;;;;;;;;;;19.70;58.90;;;;;;5037574;28;1822;-71
2023/12/10 11:09:56;;;;;;;;;;;19.70;58.90;;;;;;5045756;28;1431;-70
2023/12/10 11:12:48;;;;;;;;;;;19.70;59.00;;;;;;5036738;28;1580;-70
2023/12/10 11:15:17;;;;;;;;;;;19.70;59.00;;;;;;5040063;28;1450;-70
2023/12/10 11:17:48;;;;;;;;;;;19.60;59.00;;;;;;5041642;28;1393;-71
2023/12/10 11:20:29;;;;;;;;;;;19.60;59.00;;;;;;5039255;28;1165;-69
2023/12/10 11:22:54;;;;;;;;;;;19.60;59.10;;;;;;5039978;28;956;-70
2023/12/10 11:25:20;;;;;;;;;;;19.60;59.00;;;;;;5041355;28;1349;-69
2023/12/10 11:27:46;;;;;;;;;;;19.60;59.10;;;;;;5038305;28;1615;-71
2023/12/10 11:30:12;;;;;;;;;;;19.60;59.10;;;;;;5036807;28;1965;-72
2023/12/10 11:32:38;;;;;;;;;;;19.50;59.10;;;;;;5040935;28;1430;-71
2023/12/10 11:35:04;;;;;;;;;;;19.60;59.20;;;;;;5040175;28;1492;-71
2023/12/10 11:37:29;;;;;;;;;;;19.60;59.10;;;;;;5038419;28;1478;-70
2023/12/10 11:39:55;;;;;;;;;;;19.50;59.20;;;;;;5038975;28;926;-70
2023/12/10 11:42:20;;;;;;;;;;;19.50;59.20;;;;;;5023267;28;1971;-69
2023/12/10 11:44:46;;;;;;;;;;;19.50;59.20;;;;;;5040254;28;1907;-70
2023/12/10 11:47:11;;;;;;;;;;;19.50;59.20;;;;;;5039342;28;1658;-71
2023/12/10 11:49:37;;;;;;;;;;;19.50;59.20;;;;;;5037687;28;1480;-71
2023/12/10 11:52:03;;;;;;;;;;;19.50;59.30;;;;;;5038351;28;1911;-70
2023/12/10 11:54:29;;;;;;;;;;;19.50;59.30;;;;;;5039467;28;1417;-70
2023/12/10 11:56:54;;;;;;;;;;;19.50;59.30;;;;;;5043863;28;1505;-70
2023/12/10 11:59:20;;;;;;;;;;;19.50;59.30;;;;;;5040026;28;1340;-71
2023/12/10 12:01:46;;;;;;;;;;;19.50;59.30;;;;;;5038040;28;1468;-71
2023/12/10 12:04:12;;;;;;;;;;;19.50;59.30;;;;;;5039203;28;1586;-70
2023/12/10 12:06:38;;;;;;;;;;;19.50;59.30;;;;;;5044479;28;2165;-69
2023/12/10 12:09:03;;;;;;;;;;;19.50;59.40;;;;;;5039517;28;1776;-69
2023/12/10 12:11:29;;;;;;;;;;;19.50;59.40;;;;;;5038396;28;1981;-70
2023/12/10 12:13:54;;;;;;;;;;;19.50;59.40;;;;;;5040681;28;1324;-70
2023/12/10 12:16:20;;;;;;;;;;;19.50;59.40;;;;;;5041424;28;1430;-69
2023/12/10 12:18:45;;;;;;;;;;;19.40;59.30;;;;;;5040364;28;1443;-70
2023/12/10 12:21:11;;;;;;;;;;;19.40;59.40;;;;;;5039695;28;1512;-69
2023/12/10 12:23:36;;;;;;;;;;;19.40;59.40;;;;;;5039637;28;1313;-70
2023/12/10 12:26:02;;;;;;;;;;;19.40;59.40;;;;;;5033845;28;1784;-69
2023/12/10 12:28:27;;;;;;;;;;;19.40;59.40;;;;;;5038635;28;1399;-70
2023/12/10 12:30:53;;;;;;;;;;;19.40;59.40;;;;;;5040000;28;1914;-70
2023/12/10 12:33:18;;;;;;;;;;;19.50;59.40;;;;;;5041713;28;1206;-70
2023/12/10 12:35:44;;;;;;;;;;;19.40;59.40;;;;;;5037618;28;1379;-69
2023/12/10 12:38:09;;;;;;;;;;;19.40;59.40;;;;;;5039339;28;1371;-68
2023/12/10 12:40:35;;;;;;;;;;;19.40;59.40;;;;;;5038300;28;1391;-68
2023/12/10 12:43:01;;;;;;;;;;;19.40;59.40;;;;;;5034661;28;1519;-71
2023/12/10 12:45:26;;;;;;;;;;;19.40;59.40;;;;;;5038352;28;1307;-69
2023/12/10 12:47:52;;;;;;;;;;;19.40;59.40;;;;;;5039697;28;1284;-67
2023/12/10 12:50:18;;;;;;;;;;;19.40;59.40;;;;;;5036575;28;1965;-70
2023/12/10 12:52:44;;;;;;;;;;;19.40;59.40;;;;;;5036580;28;1450;-70
2023/12/10 12:55:10;;;;;;;;;;;19.40;59.50;;;;;;5037169;28;1557;-70
2023/12/10 12:57:36;;;;;;;;;;;19.40;59.50;;;;;;5035048;28;2111;-67
2023/12/10 13:00:04;;;;;;;;;;;19.30;59.50;;;;;;5036901;28;1423;-69
2023/12/10 13:02:30;;;;;;;;;;;19.30;59.50;;;;;;5039661;28;1409;-68
2023/12/10 13:04:56;;;;;;;;;;;19.30;59.50;;;;;;5037825;28;1308;-69
2023/12/10 13:07:21;;;;;;;;;;;19.30;59.60;;;;;;5038224;28;1621;-67
2023/12/10 13:09:47;;;;;;;;;;;19.30;59.60;;;;;;5036285;28;1458;-70
2023/12/10 13:12:12;;;;;;;;;;;19.30;59.70;;;;;;5039751;28;1978;-69
2023/12/10 13:14:39;;;;;;;;;;;19.30;59.70;;;;;;5042642;28;1445;-68
2023/12/10 13:17:05;;;;;;;;;;;19.30;59.70;;;;;;5037210;28;1337;-67
2023/12/10 13:19:31;;;;;;;;;;;19.30;59.70;;;;;;5039045;28;1498;-68
2023/12/10 13:21:56;;;;;;;;;;;19.30;59.70;;;;;;5038468;28;1337;-69
2023/12/10 13:24:22;;;;;;;;;;;19.30;59.70;;;;;;5039550;28;1523;-69
2023/12/10 13:26:48;;;;;;;;;;;19.30;59.70;;;;;;5038628;28;1268;-69
2023/12/10 13:29:13;;;;;;;;;;;19.30;59.60;;;;;;5036179;28;1411;-69
2023/12/10 13:31:39;;;;;;;;;;;19.30;59.60;;;;;;5039787;28;1906;-71
2023/12/10 13:34:05;;;;;;;;;;;19.30;59.60;;;;;;5041103;28;1332;-70
2023/12/10 13:36:30;;;;;;;;;;;19.30;59.50;;;;;;5038089;28;1310;-71
2023/12/10 13:38:56;;;;;;;;;;;19.30;59.50;;;;;;5037679;28;1487;-69
2023/12/10 13:41:22;;;;;;;;;;;19.40;59.60;;;;;;5036288;28;1493;-72
2023/12/10 13:43:48;;;;;;;;;;;19.40;59.50;;;;;;5033784;28;1415;-71
2023/12/10 13:46:13;;;;;;;;;;;19.40;59.50;;;;;;5038253;28;1446;-69
2023/12/10 13:48:39;;;;;;;;;;;19.40;59.40;;;;;;5037949;28;1406;-70
2023/12/10 13:51:05;;;;;;;;;;;19.40;59.40;;;;;;5036718;28;1902;-70
2023/12/10 13:53:30;;;;;;;;;;;19.40;59.40;;;;;;5038930;28;1523;-70
2023/12/10 13:56:05;;;;;;;;;;;19.40;59.40;;;;;;5070498;28;1352;-70
2023/12/10 13:58:31;;;;;;;;;;;19.40;59.40;;;;;;5037015;28;1783;-71
2023/12/10 14:01:00;;;;;;;;;;;19.40;59.40;;;;;;5035868;28;1484;-70
2023/12/10 14:03:26;;;;;;;;;;;19.40;59.30;;;;;;5035552;28;1455;-71
2023/12/10 14:05:51;;;;;;;;;;;19.40;59.30;;;;;;5036927;28;2274;-71
2023/12/10 14:08:17;;;;;;;;;;;19.40;59.30;;;;;;5036156;28;1453;-71
2023/12/10 14:10:42;;;;;;;;;;;19.40;59.30;;;;;;5035231;28;1906;-68
2023/12/10 14:13:08;;;;;;;;;;;19.40;59.30;;;;;;5027802;28;1252;-70
2023/12/10 14:15:34;;;;;;;;;;;19.40;59.20;;;;;;5038747;28;1191;-70
2023/12/10 14:17:59;;;;;;;;;;;19.50;59.20;;;;;;5038063;28;1336;-70
2023/12/10 14:20:25;;;;;;;;;;;19.50;59.20;;;;;;5036083;28;867;-69
2023/12/10 14:22:50;;;;;;;;;;;19.40;59.10;;;;;;5037534;28;1341;-72